Time;durP1;ratioP1;P1;durP2;ratioP2;P2;SDS_P1;SDS_P2;PMS_P1;PMS_P2;Temp;Humidity;BMP_temperature;BMP_pressure;BME280_temperature;BME280_humidity;BME280_pressure;Samples;Min_cycle;Max_cycle;Signal;HPM_P1;HPM_P2
2023/06/04 00:00:31;;;;;;;2.57;1.83;;;15.00;1.00;;;;;;5073377;28;20177;-71
2023/06/04 00:02:57;;;;;;;1.40;1.30;;;15.00;1.00;;;;;;5074999;28;20573;-70
2023/06/04 00:05:25;;;;;;;4.90;1.60;;;14.90;99.90;;;;;;5074905;28;20169;-71
2023/06/04 00:07:51;;;;;;;3.93;1.47;;;14.90;87.60;;;;;;5074713;28;20262;-71
2023/06/04 00:10:17;;;;;;;2.60;1.63;;;14.90;1.00;;;;;;5074826;28;20203;-71
2023/06/04 00:12:43;;;;;;;1.97;1.40;;;14.90;1.00;;;;;;5074802;28;20612;-71
2023/06/04 00:15:09;;;;;;;1.50;1.40;;;14.90;45.40;;;;;;5074222;28;20230;-71
2023/06/04 00:17:34;;;;;;;3.23;1.80;;;14.80;99.90;;;;;;5074708;28;20620;-70
2023/06/04 00:20:00;;;;;;;3.93;1.70;;;14.80;1.00;;;;;;5074666;28;20184;-71
2023/06/04 00:22:26;;;;;;;2.30;1.90;;;14.80;1.00;;;;;;5074505;28;20248;-71
2023/06/04 00:24:51;;;;;;;4.00;1.93;;;14.70;1.00;;;;;;5074379;28;20161;-70
2023/06/04 00:27:17;;;;;;;2.60;1.90;;;14.70;1.00;;;;;;5074403;28;20176;-70
2023/06/04 00:29:43;;;;;;;6.13;1.80;;;14.60;99.90;;;;;;5073998;28;20180;-71
2023/06/04 00:32:08;;;;;;;3.07;1.70;;;14.60;1.00;;;;;;5074441;28;20161;-70
2023/06/04 00:34:34;;;;;;;2.27;2.07;;;14.60;1.00;;;;;;5074120;28;20224;-71
2023/06/04 00:37:01;;;;;;;4.90;2.00;;;14.50;1.00;;;;;;5074212;28;20674;-70
2023/06/04 00:39:27;;;;;;;5.33;1.93;;;14.50;63.80;;;;;;5074175;28;20631;-71
2023/06/04 00:41:52;;;;;;;3.43;1.50;;;14.40;6.20;;;;;;5073858;28;20242;-71
2023/06/04 00:44:18;;;;;;;3.10;2.07;;;14.40;99.90;;;;;;5074085;28;20214;-71
2023/06/04 00:46:45;;;;;;;4.23;2.00;;;14.40;99.90;;;;;;5074235;28;20169;-71
2023/06/04 00:49:12;;;;;;;4.13;1.80;;;14.40;99.90;;;;;;5074036;28;20227;-71
2023/06/04 00:51:37;;;;;;;2.27;2.10;;;14.30;99.90;;;;;;5073929;28;20631;-71
2023/06/04 00:54:08;;;;;;;1.90;1.80;;;14.30;99.90;;;;;;5073945;28;20181;-71
2023/06/04 00:56:37;;;;;;;2.27;1.80;;;14.20;99.90;;;;;;5073601;28;20279;-71
2023/06/04 00:59:03;;;;;;;3.40;1.90;;;14.20;99.90;;;;;;5073826;28;20223;-71
2023/06/04 01:01:50;;;;;;;4.57;2.40;;;14.20;99.90;;;;;;5073913;28;20256;-71
2023/06/04 01:04:29;;;;;;;2.90;2.10;;;14.10;99.90;;;;;;5072779;28;20161;-71
2023/06/04 01:07:00;;;;;;;2.83;1.80;;;14.10;99.90;;;;;;5073819;28;20221;-72
2023/06/04 01:09:27;;;;;;;4.83;2.10;;;14.10;1.00;;;;;;5073512;28;20204;-71
2023/06/04 01:11:53;;;;;;;4.77;2.23;;;14.00;1.00;;;;;;5073429;28;20267;-71
2023/06/04 01:14:19;;;;;;;3.23;2.27;;;14.00;1.00;;;;;;5073719;28;20695;-70
2023/06/04 01:17:17;;;;;;;2.63;2.10;;;14.00;1.00;;;;;;5073548;28;20222;-71
2023/06/04 01:20:11;;;;;;;2.97;2.37;;;13.90;1.00;;;;;;5073381;28;20180;-71
2023/06/04 01:22:59;;;;;;;2.50;2.30;;;13.90;1.00;;;;;;5073513;28;20177;-71
2023/06/04 01:25:41;;;;;;;2.23;1.90;;;13.90;1.00;;;;;;5073147;28;20208;-71
2023/06/04 01:28:10;;;;;;;3.87;2.10;;;13.80;1.00;;;;;;5073391;28;20208;-71
2023/06/04 01:30:42;;;;;;;5.00;2.47;;;13.80;1.00;;;;;;5073164;28;20157;-70
2023/06/04 01:33:10;;;;;;;3.30;2.23;;;13.80;1.00;;;;;;5073164;28;20220;-71
2023/06/04 01:35:36;;;;;;;2.13;1.87;;;13.70;1.00;;;;;;5073367;28;20173;-70
2023/06/04 01:38:02;;;;;;;3.30;2.20;;;13.70;1.00;;;;;;5073298;28;20189;-71
2023/06/04 01:40:28;;;;;;;4.27;2.13;;;13.60;1.00;;;;;;5072786;28;20636;-71
2023/06/04 01:42:54;;;;;;;2.73;2.20;;;13.60;1.00;;;;;;5073138;28;20246;-71
2023/06/04 01:45:23;;;;;;;5.23;2.20;;;13.60;1.00;;;;;;5073368;28;20179;-70
2023/06/04 01:47:50;;;;;;;5.50;2.30;;;13.60;1.00;;;;;;5073050;28;20768;-70
2023/06/04 01:50:16;;;;;;;2.83;2.20;;;13.50;1.00;;;;;;5073182;28;20173;-70
2023/06/04 01:52:43;;;;;;;3.60;2.43;;;13.50;1.00;;;;;;5073065;28;20530;-71
2023/06/04 01:55:14;;;;;;;2.97;2.20;;;13.40;1.00;;;;;;5072635;28;20180;-71
2023/06/04 01:57:41;;;;;;;2.67;2.30;;;13.40;1.00;;;;;;5073414;28;20201;-71
2023/06/04 02:00:10;;;;;;;6.37;2.20;;;13.40;1.00;;;;;;5072985;28;20195;-71
2023/06/04 02:02:36;;;;;;;3.30;2.20;;;13.30;1.00;;;;;;5073127;28;20229;-71
2023/06/04 02:05:08;;;;;;;3.50;2.40;;;13.30;1.00;;;;;;5073040;28;20169;-71
2023/06/04 02:07:35;;;;;;;3.40;2.53;;;13.30;1.00;;;;;;5072825;28;20168;-71
2023/06/04 02:10:01;;;;;;;4.87;2.50;;;13.20;1.00;;;;;;5072670;28;20259;-71
2023/06/04 02:12:26;;;;;;;3.77;2.67;;;13.20;1.00;;;;;;5073195;28;20199;-71
2023/06/04 02:14:52;;;;;;;3.97;2.23;;;13.20;1.00;;;;;;5073749;28;20184;-70
2023/06/04 02:17:17;;;;;;;4.97;2.77;;;13.20;1.00;;;;;;5077040;28;20648;-71
2023/06/04 02:19:44;;;;;;;4.57;2.43;;;13.10;1.00;;;;;;5076822;28;20282;-71
2023/06/04 02:22:11;;;;;;;6.03;2.63;;;13.10;1.00;;;;;;5076708;28;20176;-71
2023/06/04 02:24:38;;;;;;;3.37;2.63;;;13.10;1.00;;;;;;5076464;28;20183;-71
2023/06/04 02:27:05;;;;;;;7.20;2.70;;;13.10;1.00;;;;;;5076823;28;20314;-70
2023/06/04 02:29:31;;;;;;;2.53;2.00;;;13.10;1.00;;;;;;5076536;28;20274;-71
2023/06/04 02:31:56;;;;;;;2.77;2.53;;;13.00;1.00;;;;;;5076816;28;20200;-70
2023/06/04 02:34:23;;;;;;;2.47;2.00;;;13.00;1.00;;;;;;5076394;28;20228;-71
2023/06/04 02:36:50;;;;;;;2.57;2.37;;;13.00;1.00;;;;;;5076528;28;20176;-71
2023/06/04 02:39:16;;;;;;;3.67;2.63;;;13.00;1.00;;;;;;5076274;28;20252;-70
2023/06/04 02:41:42;;;;;;;4.10;2.57;;;12.90;1.00;;;;;;5076538;28;20169;-70
2023/06/04 02:44:08;;;;;;;3.17;2.40;;;12.90;1.00;;;;;;5076399;28;20222;-70
2023/06/04 02:46:33;;;;;;;5.07;2.37;;;12.90;1.00;;;;;;5076793;28;20176;-70
2023/06/04 02:48:59;;;;;;;2.37;2.20;;;12.80;1.00;;;;;;5076329;28;20673;-72
2023/06/04 02:51:25;;;;;;;6.60;2.70;;;12.80;1.00;;;;;;5076062;28;20175;-70
2023/06/04 02:53:51;;;;;;;4.40;2.10;;;12.80;1.00;;;;;;5075851;28;20173;-71
2023/06/04 02:56:17;;;;;;;5.60;2.27;;;12.70;1.00;;;;;;5076341;28;20193;-71
2023/06/04 02:58:55;;;;;;;3.80;2.33;;;12.70;1.00;;;;;;5076175;28;20636;-71
2023/06/04 03:01:25;;;;;;;2.60;2.40;;;12.70;1.00;;;;;;5076314;28;20183;-71
2023/06/04 03:03:52;;;;;;;2.90;2.60;;;12.60;1.00;;;;;;5075893;28;20172;-72
2023/06/04 03:06:22;;;;;;;3.27;2.60;;;12.60;1.00;;;;;;5074519;28;20169;-70
2023/06/04 03:08:50;;;;;;;5.03;2.57;;;12.60;1.00;;;;;;5074968;28;20204;-70
2023/06/04 03:11:16;;;;;;;3.83;2.60;;;12.60;1.00;;;;;;5075905;28;20532;-70
2023/06/04 03:13:41;;;;;;;4.43;2.80;;;12.60;1.00;;;;;;5075943;28;20168;-71
2023/06/04 03:16:09;;;;;;;3.93;2.37;;;12.50;1.00;;;;;;5075991;28;20186;-71
2023/06/04 03:18:36;;;;;;;4.00;2.60;;;12.60;1.00;;;;;;5075570;28;20663;-71
2023/06/04 03:21:02;;;;;;;3.30;2.50;;;12.50;1.00;;;;;;5075780;28;20169;-71
2023/06/04 03:23:28;;;;;;;3.60;2.30;;;12.50;1.00;;;;;;5075278;28;20184;-71
2023/06/04 03:25:53;;;;;;;5.37;3.00;;;12.50;1.00;;;;;;5075392;28;20175;-71
2023/06/04 03:28:19;;;;;;;4.20;2.83;;;12.50;1.00;;;;;;5074784;28;20561;-71
2023/06/04 03:30:45;;;;;;;4.87;2.70;;;12.40;1.00;;;;;;5075456;28;20173;-71
2023/06/04 03:33:11;;;;;;;6.60;2.93;;;12.40;1.00;;;;;;5075305;28;20285;-71
2023/06/04 03:35:36;;;;;;;4.53;3.10;;;12.40;1.00;;;;;;5075395;28;20168;-71
2023/06/04 03:38:02;;;;;;;5.33;2.77;;;12.40;1.00;;;;;;5073858;28;20173;-71
2023/06/04 03:40:27;;;;;;;5.57;3.10;;;12.40;1.00;;;;;;5075156;28;20330;-71
2023/06/04 03:42:53;;;;;;;8.17;3.47;;;12.40;1.00;;;;;;5073996;28;20757;-71
2023/06/04 03:45:19;;;;;;;14.57;3.50;;;12.40;1.00;;;;;;5075235;28;20172;-71
2023/06/04 03:47:45;;;;;;;6.63;2.80;;;12.50;1.00;;;;;;5075093;28;20192;-73
2023/06/04 03:50:11;;;;;;;5.43;2.93;;;12.60;1.00;;;;;;5075270;28;20178;-71
2023/06/04 03:52:36;;;;;;;7.17;3.07;;;12.80;1.00;;;;;;5074809;28;20169;-71
2023/06/04 03:55:03;;;;;;;2.83;2.60;;;13.00;1.00;;;;;;5074849;28;20179;-71
2023/06/04 03:57:29;;;;;;;6.53;2.73;;;13.30;1.00;;;;;;5075059;28;20196;-71
2023/06/04 03:59:55;;;;;;;3.83;2.83;;;13.50;1.00;;;;;;5075220;28;20169;-70
2023/06/04 04:02:21;;;;;;;2.80;2.50;;;13.70;1.00;;;;;;5075000;28;20183;-72
2023/06/04 04:04:46;;;;;;;3.20;2.83;;;13.90;1.00;;;;;;5074665;28;20164;-72
2023/06/04 04:07:12;;;;;;;5.87;2.90;;;14.10;1.00;;;;;;5074613;28;20164;-72
2023/06/04 04:09:38;;;;;;;3.20;2.53;;;14.20;1.00;;;;;;5074702;28;20213;-71
2023/06/04 04:12:05;;;;;;;4.03;2.80;;;14.50;1.00;;;;;;5074463;28;20196;-71
2023/06/04 04:14:30;;;;;;;4.83;2.87;;;14.90;1.00;;;;;;5074667;28;20207;-72
2023/06/04 04:16:56;;;;;;;5.73;2.90;;;15.20;1.00;;;;;;5074664;28;20272;-72
2023/06/04 04:19:21;;;;;;;4.77;2.67;;;15.00;1.00;;;;;;5074315;28;20652;-72
2023/06/04 04:21:48;;;;;;;3.20;2.90;;;15.20;1.00;;;;;;5074287;28;20624;-72
2023/06/04 04:24:26;;;;;;;3.47;2.50;;;15.20;1.00;;;;;;5074519;28;20267;-71
2023/06/04 04:26:54;;;;;;;3.17;2.70;;;15.10;1.00;;;;;;5074192;28;20192;-71
2023/06/04 04:29:24;;;;;;;3.50;2.67;;;15.10;1.00;;;;;;5074079;28;20671;-71
2023/06/04 04:31:56;;;;;;;3.17;2.87;;;15.60;1.00;;;;;;5074335;28;20212;-71
2023/06/04 04:34:24;;;;;;;3.37;2.70;;;16.10;99.90;;;;;;5073595;28;20311;-72
2023/06/04 04:36:51;;;;;;;5.00;2.93;;;16.10;1.00;;;;;;5074266;28;20180;-72
2023/06/04 04:39:25;;;;;;;3.47;3.17;;;16.00;99.90;;;;;;5073609;28;20249;-71
2023/06/04 04:41:51;;;;;;;4.50;2.77;;;16.10;99.90;;;;;;5073535;28;20161;-72
2023/06/04 04:44:17;;;;;;;4.90;3.20;;;16.30;1.00;;;;;;5074077;28;20172;-71
2023/06/04 04:46:43;;;;;;;2.57;2.33;;;16.40;1.00;;;;;;5073958;28;20678;-71
2023/06/04 04:49:08;;;;;;;2.97;2.77;;;16.50;1.00;;;;;;5073577;28;20200;-71
2023/06/04 04:51:35;;;;;;;3.27;3.00;;;16.70;99.90;;;;;;5073812;28;20195;-71
2023/06/04 04:54:00;;;;;;;3.70;3.17;;;16.90;1.00;;;;;;5073896;28;20173;-71
2023/06/04 04:56:26;;;;;;;3.37;2.80;;;17.20;54.30;;;;;;5073169;28;20189;-71
2023/06/04 04:58:53;;;;;;;7.17;3.17;;;17.60;52.50;;;;;;5073017;28;20584;-72
2023/06/04 05:01:20;;;;;;;3.37;2.73;;;17.50;99.90;;;;;;5073681;28;20176;-71
2023/06/04 05:03:46;;;;;;;4.30;2.60;;;17.60;99.90;;;;;;5071917;28;20542;-71
2023/06/04 05:06:11;;;;;;;3.30;2.70;;;17.90;1.00;;;;;;5073542;28;20172;-71
2023/06/04 05:08:37;;;;;;;2.83;2.53;;;18.40;99.90;;;;;;5073194;28;20243;-72
2023/06/04 05:11:02;;;;;;;3.53;2.90;;;17.90;1.00;;;;;;5073188;28;20581;-71
2023/06/04 05:13:28;;;;;;;2.90;2.60;;;18.20;99.90;;;;;;5073641;28;20176;-70
2023/06/04 05:15:54;;;;;;;6.77;2.90;;;18.30;1.00;;;;;;5073496;28;20165;-71
2023/06/04 05:18:20;;;;;;;9.87;2.80;;;18.50;99.90;;;;;;5073244;28;20545;-71
2023/06/04 05:20:46;;;;;;;4.20;3.07;;;19.20;1.00;;;;;;5073141;28;20168;-71
2023/06/04 05:23:12;;;;;;;3.42;2.83;;;18.80;1.00;;;;;;5072984;28;20169;-72
2023/06/04 05:25:38;;;;;;;3.65;3.08;;;19.10;99.90;;;;;;5071732;28;20176;-72
2023/06/04 05:28:06;;;;;;;2.95;2.75;;;20.20;99.90;;;;;;5073344;28;20192;-73
2023/06/04 05:30:35;;;;;;;3.75;3.13;;;20.40;1.00;;;;;;5073093;28;20218;-73
2023/06/04 05:33:00;;;;;;;3.45;2.72;;;20.40;1.00;;;;;;5072692;28;20175;-73
2023/06/04 05:35:26;;;;;;;4.93;2.63;;;20.20;1.00;;;;;;5073305;28;20173;-72
2023/06/04 05:37:53;;;;;;;3.05;2.65;;;21.00;1.00;;;;;;5072848;28;20183;-72
2023/06/04 05:40:22;;;;;;;3.65;2.97;;;21.10;99.90;;;;;;5073090;28;20168;-72
2023/06/04 05:42:48;;;;;;;3.50;2.85;;;21.20;99.90;;;;;;5073057;28;20598;-73
2023/06/04 05:45:14;;;;;;;4.07;2.50;;;21.70;99.90;;;;;;5073017;28;20664;-72
2023/06/04 05:47:40;;;;;;;5.78;2.92;;;21.40;99.90;;;;;;5072571;28;20169;-73
2023/06/04 05:50:06;;;;;;;3.03;2.72;;;21.60;81.70;;;;;;5072182;28;20172;-73
2023/06/04 05:52:34;;;;;;;3.70;3.10;;;21.90;1.00;;;;;;5073010;28;20663;-73
2023/06/04 05:54:59;;;;;;;3.63;3.10;;;22.10;1.00;;;;;;5072667;28;20237;-75
2023/06/04 05:57:25;;;;;;;2.92;2.67;;;22.40;1.00;;;;;;5072710;28;20189;-73
2023/06/04 05:59:51;;;;;;;3.58;2.83;;;22.50;1.00;;;;;;5073028;28;20620;-74
2023/06/04 06:02:17;;;;;;;3.72;2.97;;;23.10;1.00;;;;;;5072477;28;20175;-73
2023/06/04 06:04:42;;;;;;;5.03;2.90;;;22.70;1.00;;;;;;5072960;28;20183;-74
2023/06/04 06:07:08;;;;;;;3.47;3.17;;;23.50;1.00;;;;;;5072262;28;20176;-73
2023/06/04 06:09:35;;;;;;;3.63;2.97;;;23.90;1.00;;;;;;5072083;28;20734;-73
2023/06/04 06:12:01;;;;;;;3.35;3.03;;;23.40;1.00;;;;;;5072663;28;20627;-75
2023/06/04 06:14:26;;;;;;;3.17;2.70;;;23.20;1.00;;;;;;5072542;28;20184;-75
2023/06/04 06:16:53;;;;;;;3.63;2.63;;;23.30;1.00;;;;;;5071409;28;20169;-75
2023/06/04 06:19:18;;;;;;;3.60;2.72;;;24.10;1.00;;;;;;5072590;28;20222;-75
2023/06/04 06:21:44;;;;;;;4.15;2.65;;;24.80;99.90;;;;;;5072647;28;20562;-75
2023/06/04 06:24:10;;;;;;;5.13;3.00;;;24.70;99.90;;;;;;5072814;28;20586;-75
2023/06/04 06:26:36;;;;;;;3.00;2.80;;;25.00;99.90;;;;;;5072194;28;20173;-74
2023/06/04 06:29:01;;;;;;;2.85;2.65;;;24.70;99.90;;;;;;5072680;28;20286;-75
2023/06/04 06:31:27;;;;;;;8.70;3.00;;;25.30;99.90;;;;;;5071288;28;20179;-75
2023/06/04 06:33:53;;;;;;;3.42;2.58;;;25.10;99.90;;;;;;5070949;28;20247;-75
2023/06/04 06:36:18;;;;;;;3.20;2.40;;;26.50;99.90;;;;;;5072772;28;20632;-75
2023/06/04 06:38:45;;;;;;;3.58;3.10;;;27.00;99.90;;;;;;5072508;28;20256;-76
2023/06/04 06:41:11;;;;;;;4.60;3.00;;;25.80;99.90;;;;;;5072114;28;20176;-75
2023/06/04 06:43:37;;;;;;;3.05;2.67;;;25.80;99.90;;;;;;5072660;28;20192;-76
2023/06/04 06:46:02;;;;;;;3.30;2.70;;;25.70;99.90;;;;;;5070867;28;20612;-75
2023/06/04 06:48:28;;;;;;;2.63;2.42;;;25.20;99.90;;;;;;5072455;28;20231;-74
2023/06/04 06:50:54;;;;;;;2.95;2.50;;;25.60;99.90;;;;;;5072014;28;20693;-74
2023/06/04 06:53:20;;;;;;;4.47;2.80;;;26.10;99.90;;;;;;5072298;28;20260;-74
2023/06/04 06:55:46;;;;;;;3.67;2.63;;;26.70;99.90;;;;;;5072319;28;20189;-74
2023/06/04 06:58:11;;;;;;;2.90;2.60;;;26.30;99.90;;;;;;5071355;28;20243;-74
2023/06/04 07:00:37;;;;;;;3.10;2.80;;;26.70;99.90;;;;;;5071756;28;20207;-75
2023/06/04 07:03:03;;;;;;;3.53;2.33;;;27.00;99.90;;;;;;5075874;28;20230;-75
2023/06/04 07:05:29;;;;;;;5.88;2.45;;;26.30;99.90;;;;;;5075538;28;20188;-75
2023/06/04 07:07:57;;;;;;;6.65;3.05;;;26.30;99.90;;;;;;5075250;28;20648;-75
2023/06/04 07:10:22;;;;;;;2.78;2.50;;;25.80;99.90;;;;;;5075555;28;20188;-75
2023/06/04 07:12:48;;;;;;;4.40;2.47;;;26.40;99.90;;;;;;5075527;28;20180;-74
2023/06/04 07:15:14;;;;;;;2.97;2.67;;;26.00;99.90;;;;;;5075163;28;20176;-75
2023/06/04 07:17:40;;;;;;;5.30;2.53;;;26.30;99.90;;;;;;5075666;28;20177;-74
2023/06/04 07:20:08;;;;;;;3.05;2.58;;;26.90;99.90;;;;;;5074997;28;20172;-74
2023/06/04 07:22:34;;;;;;;5.85;2.67;;;27.70;99.90;;;;;;5075531;28;20169;-74
2023/06/04 07:25:00;;;;;;;3.15;2.28;;;28.10;99.90;;;;;;5075267;28;20635;-74
2023/06/04 07:27:26;;;;;;;3.28;2.10;;;26.20;99.90;;;;;;5075332;28;20290;-75
2023/06/04 07:29:52;;;;;;;2.38;2.17;;;26.70;99.90;;;;;;5075456;28;20250;-76
2023/06/04 07:32:17;;;;;;;6.20;2.30;;;26.40;99.90;;;;;;5075507;28;20524;-76
2023/06/04 07:34:43;;;;;;;2.78;2.38;;;26.20;99.90;;;;;;5074645;28;20231;-74
2023/06/04 07:37:09;;;;;;;2.83;2.00;;;27.20;99.90;;;;;;5075067;28;20169;-76
2023/06/04 07:39:35;;;;;;;2.10;1.90;;;26.80;99.90;;;;;;5074672;28;20175;-75
2023/06/04 07:42:01;;;;;;;3.17;2.30;;;26.80;99.90;;;;;;5075027;28;20169;-74
2023/06/04 07:44:26;;;;;;;2.60;1.98;;;27.40;99.90;;;;;;5074797;28;20624;-74
2023/06/04 07:46:52;;;;;;;4.45;2.05;;;26.70;97.80;;;;;;5074975;28;20172;-74
2023/06/04 07:49:18;;;;;;;2.75;2.00;;;26.40;99.90;;;;;;5074897;28;20216;-74
2023/06/04 07:51:43;;;;;;;3.30;2.08;;;26.00;99.90;;;;;;5074966;28;20171;-74
2023/06/04 07:54:10;;;;;;;2.45;1.85;;;26.70;99.90;;;;;;5074923;28;20255;-74
2023/06/04 07:56:35;;;;;;;3.15;2.30;;;27.30;97.00;;;;;;5074505;28;20196;-76
2023/06/04 07:59:01;;;;;;;2.75;1.85;;;27.00;90.70;;;;;;5074274;28;20733;-75
2023/06/04 08:01:27;;;;;;;2.85;2.00;;;26.20;93.00;;;;;;5074341;28;20553;-75
2023/06/04 08:03:53;;;;;;;2.42;2.10;;;26.30;99.90;;;;;;5074465;28;20169;-75
2023/06/04 08:06:18;;;;;;;2.35;2.00;;;27.10;93.30;;;;;;5074407;28;20177;-74
2023/06/04 08:08:45;;;;;;;1.95;1.83;;;27.00;83.10;;;;;;5075029;28;20231;-74
2023/06/04 08:11:15;;;;;;;3.42;1.98;;;26.60;90.50;;;;;;5074284;28;20260;-75
2023/06/04 08:13:41;;;;;;;3.60;2.08;;;26.50;93.30;;;;;;5073151;28;20173;-74
2023/06/04 08:16:07;;;;;;;4.30;2.03;;;26.80;95.70;;;;;;5074257;28;20587;-74
2023/06/04 08:18:33;;;;;;;2.92;2.00;;;28.10;81.70;;;;;;5073888;28;20256;-75
2023/06/04 08:20:58;;;;;;;4.32;1.83;;;28.20;51.10;;;;;;5073865;28;20247;-75
2023/06/04 08:23:24;;;;;;;3.03;1.73;;;27.20;43.80;;;;;;5074084;28;20523;-75
2023/06/04 08:25:50;;;;;;;2.28;1.60;;;26.60;55.30;;;;;;5074063;28;20314;-75
2023/06/04 08:28:16;;;;;;;1.38;1.25;;;26.40;56.90;;;;;;5073770;28;20214;-74
2023/06/04 08:30:42;;;;;;;2.72;1.70;;;25.40;61.90;;;;;;5073880;28;20547;-74
2023/06/04 08:33:08;;;;;;;1.58;1.45;;;25.70;73.80;;;;;;5073881;28;20295;-74
2023/06/04 08:35:33;;;;;;;2.05;1.73;;;26.60;62.40;;;;;;5073949;28;20337;-74
2023/06/04 08:37:59;;;;;;;1.60;1.50;;;26.60;53.10;;;;;;5073930;28;20196;-73
2023/06/04 08:40:25;;;;;;;5.50;1.52;;;25.90;43.70;;;;;;5073635;28;20583;-74
2023/06/04 08:42:57;;;;;;;8.07;1.83;;;25.10;60.00;;;;;;5074040;28;20191;-72
2023/06/04 08:45:25;;;;;;;2.13;1.60;;;25.50;91.20;;;;;;5073553;28;20173;-74
2023/06/04 08:47:51;;;;;;;2.13;1.60;;;26.30;85.80;;;;;;5072041;28;20522;-74
2023/06/04 08:50:18;;;;;;;3.63;1.85;;;26.60;61.50;;;;;;5073098;28;20239;-73
2023/06/04 08:52:44;;;;;;;2.20;1.60;;;26.70;58.10;;;;;;5072933;28;20298;-74
2023/06/04 08:55:14;;;;;;;2.10;1.60;;;26.50;58.10;;;;;;5073198;28;20176;-74
2023/06/04 08:57:40;;;;;;;5.60;1.48;;;27.30;55.50;;;;;;5073473;28;20199;-73
2023/06/04 09:00:08;;;;;;;1.55;1.45;;;27.80;38.90;;;;;;5072624;28;20176;-74
2023/06/04 09:02:37;;;;;;;1.67;1.40;;;27.70;31.00;;;;;;5073161;28;20250;-74
2023/06/04 09:05:06;;;;;;;3.17;1.60;;;27.50;39.70;;;;;;5073189;28;20177;-73
2023/06/04 09:07:36;;;;;;;1.70;1.38;;;27.30;27.20;;;;;;5073366;28;20172;-73
2023/06/04 09:10:02;;;;;;;3.72;1.63;;;27.90;29.40;;;;;;5073261;28;20277;-74
2023/06/04 09:12:29;;;;;;;4.50;1.65;;;27.00;22.90;;;;;;5073278;28;20169;-73
2023/06/04 09:14:55;;;;;;;1.35;1.30;;;26.60;26.80;;;;;;5073435;28;20286;-74
2023/06/04 09:17:24;;;;;;;4.50;1.60;;;26.00;23.80;;;;;;5073114;28;20639;-73
2023/06/04 09:19:50;;;;;;;2.72;1.90;;;26.80;26.60;;;;;;5072887;28;20177;-75
2023/06/04 09:22:16;;;;;;;2.30;1.55;;;27.50;28.30;;;;;;5072838;28;20169;-74
2023/06/04 09:24:47;;;;;;;2.67;1.60;;;26.90;18.60;;;;;;5072256;28;20172;-75
2023/06/04 09:27:18;;;;;;;1.90;1.60;;;25.90;22.50;;;;;;5073124;28;20614;-73
2023/06/04 09:29:56;;;;;;;3.67;1.60;;;25.60;28.60;;;;;;5072719;28;20212;-74
2023/06/04 09:32:27;;;;;;;4.05;1.50;;;26.70;33.30;;;;;;5072745;28;20211;-75
2023/06/04 09:35:16;;;;;;;2.13;1.65;;;26.90;24.80;;;;;;5073028;28;20223;-74
2023/06/04 09:37:43;;;;;;;2.13;1.60;;;27.10;22.50;;;;;;5070647;28;20253;-75
2023/06/04 09:40:09;;;;;;;3.55;1.50;;;27.90;17.40;;;;;;5072165;28;20235;-75
2023/06/04 09:42:46;;;;;;;1.80;1.52;;;27.10;15.70;;;;;;5072815;28;20543;-76
2023/06/04 09:45:12;;;;;;;2.97;1.40;;;26.80;16.60;;;;;;5071616;28;20164;-75
2023/06/04 09:47:42;;;;;;;2.28;1.58;;;26.40;19.90;;;;;;5072004;28;20238;-76
2023/06/04 09:50:08;;;;;;;2.45;1.60;;;26.20;20.40;;;;;;5071795;28;20517;-78
2023/06/04 09:52:34;;;;;;;5.00;1.80;;;26.20;22.00;;;;;;5072879;28;20169;-76
2023/06/04 09:55:00;;;;;;;2.85;1.42;;;26.50;19.10;;;;;;5072390;28;20191;-76
2023/06/04 09:57:29;;;;;;;4.45;1.80;;;26.70;16.20;;;;;;5072121;28;20191;-74
2023/06/04 09:59:56;;;;;;;2.58;2.00;;;26.70;19.70;;;;;;5071895;28;20180;-75
2023/06/04 10:02:22;;;;;;;1.40;1.30;;;27.30;14.10;;;;;;5072227;28;20180;-75
2023/06/04 10:04:59;;;;;;;2.95;1.77;;;26.50;5.30;;;;;;5071584;28;20172;-75
2023/06/04 10:07:26;;;;;;;4.72;2.65;;;24.90;11.90;;;;;;5072402;28;20165;-75
2023/06/04 10:09:55;;;;;;;1.98;1.80;;;25.20;27.90;;;;;;5072020;28;20639;-76
2023/06/04 10:12:26;;;;;;;2.75;1.80;;;25.90;22.10;;;;;;5072432;28;20207;-74
2023/06/04 10:14:58;;;;;;;3.38;1.67;;;26.10;16.70;;;;;;5072526;28;20195;-75
2023/06/04 10:17:27;;;;;;;2.85;2.00;;;26.70;14.40;;;;;;5072382;28;20255;-75
2023/06/04 10:19:54;;;;;;;3.65;2.00;;;26.00;8.10;;;;;;5072487;28;20176;-75
2023/06/04 10:22:20;;;;;;;3.13;1.70;;;26.00;11.30;;;;;;5072008;28;20180;-75
2023/06/04 10:24:46;;;;;;;4.10;1.67;;;26.40;12.80;;;;;;5072408;28;20243;-76
2023/06/04 10:27:13;;;;;;;3.17;1.75;;;26.20;12.40;;;;;;5070681;28;20319;-75
2023/06/04 10:29:39;;;;;;;6.00;2.03;;;26.30;14.40;;;;;;5071741;28;20212;-76
2023/06/04 10:32:06;;;;;;;1.60;1.40;;;26.40;15.20;;;;;;5072742;28;20165;-75
2023/06/04 10:34:32;;;;;;;1.92;1.75;;;26.20;12.20;;;;;;5072293;28;20216;-76
2023/06/04 10:36:58;;;;;;;2.50;1.60;;;26.50;10.30;;;;;;5074373;28;20199;-76
2023/06/04 10:39:33;;;;;;;4.10;1.80;;;26.40;9.40;;;;;;5076419;28;20220;-75
2023/06/04 10:42:03;;;;;;;1.92;1.73;;;26.70;16.10;;;;;;5075842;28;20174;-75
2023/06/04 10:44:44;;;;;;;4.95;1.67;;;26.20;11.10;;;;;;5075840;28;20249;-75
2023/06/04 10:47:25;;;;;;;2.10;1.65;;;25.90;14.30;;;;;;5076330;28;20168;-75
2023/06/04 10:49:51;;;;;;;2.58;1.50;;;26.40;14.80;;;;;;5075621;28;20208;-74
2023/06/04 10:52:18;;;;;;;3.22;1.98;;;25.80;11.70;;;;;;5075371;28;20506;-75
2023/06/04 10:54:45;;;;;;;5.18;1.77;;;26.00;8.20;;;;;;5075525;28;20256;-75
2023/06/04 10:57:12;;;;;;;4.43;1.60;;;26.70;10.90;;;;;;5075297;28;20204;-75
2023/06/04 10:59:37;;;;;;;3.28;1.65;;;25.80;7.10;;;;;;5075637;28;20202;-77
2023/06/04 11:02:07;;;;;;;4.50;1.70;;;25.50;12.20;;;;;;5075153;28;20632;-75
2023/06/04 11:04:33;;;;;;;3.90;2.20;;;25.70;16.10;;;;;;5075562;28;20723;-75
2023/06/04 11:07:03;;;;;;;3.90;1.90;;;25.70;14.70;;;;;;5075148;28;20256;-75
2023/06/04 11:09:29;;;;;;;1.80;1.70;;;26.00;18.00;;;;;;5075407;28;20208;-75
2023/06/04 11:11:59;;;;;;;1.80;1.60;;;26.10;13.50;;;;;;5075464;28;20171;-75
2023/06/04 11:14:25;;;;;;;3.88;1.75;;;25.70;12.90;;;;;;5075719;28;20172;-75
2023/06/04 11:16:50;;;;;;;2.70;1.50;;;25.70;14.10;;;;;;5074951;28;20161;-75
2023/06/04 11:19:16;;;;;;;2.25;1.92;;;26.40;7.90;;;;;;5075511;28;20173;-77
2023/06/04 11:21:43;;;;;;;2.40;2.05;;;25.70;2.30;;;;;;5074940;28;20175;-76
2023/06/04 11:24:08;;;;;;;2.42;1.67;;;24.80;6.90;;;;;;5075498;28;20183;-77
2023/06/04 11:26:35;;;;;;;2.25;1.60;;;25.20;6.70;;;;;;5074828;28;20169;-76
2023/06/04 11:29:05;;;;;;;2.95;1.73;;;25.30;9.40;;;;;;5075432;28;20204;-75
2023/06/04 11:31:44;;;;;;;2.20;2.00;;;25.60;12.10;;;;;;5075298;28;20251;-75
2023/06/04 11:34:11;;;;;;;3.40;2.00;;;25.10;12.50;;;;;;5074913;28;20331;-75
2023/06/04 11:36:37;;;;;;;4.10;2.25;;;24.70;19.20;;;;;;5074506;28;20643;-75
2023/06/04 11:39:07;;;;;;;2.60;2.00;;;24.90;23.30;;;;;;5074769;28;20184;-76
2023/06/04 11:41:35;;;;;;;1.92;1.80;;;24.90;23.40;;;;;;5075162;28;20176;-75
2023/06/04 11:44:05;;;;;;;2.15;1.67;;;24.50;22.40;;;;;;5075597;28;20527;-75
2023/06/04 11:46:35;;;;;;;1.50;1.45;;;24.60;25.50;;;;;;5074616;28;20181;-75
2023/06/04 11:49:02;;;;;;;3.28;2.00;;;24.40;28.70;;;;;;5072524;28;20200;-75
2023/06/04 11:51:28;;;;;;;4.13;1.88;;;24.30;26.60;;;;;;5074795;28;20218;-75
2023/06/04 11:53:57;;;;;;;1.77;1.63;;;25.00;21.90;;;;;;5074636;28;20169;-75
2023/06/04 11:56:25;;;;;;;2.03;1.80;;;25.30;17.70;;;;;;5074818;28;20549;-75
2023/06/04 11:58:53;;;;;;;4.05;2.85;;;23.80;21.50;;;;;;5073421;28;20563;-75
2023/06/04 12:01:19;;;;;;;4.30;2.22;;;23.40;40.10;;;;;;5074347;28;20662;-75
2023/06/04 12:03:45;;;;;;;3.15;2.85;;;23.60;40.80;;;;;;5074284;28;20176;-75
2023/06/04 12:06:19;;;;;;;3.05;1.77;;;23.70;33.40;;;;;;5074684;28;20180;-76
2023/06/04 12:08:53;;;;;;;4.95;1.90;;;24.10;35.50;;;;;;5074621;28;20204;-77
2023/06/04 12:11:31;;;;;;;2.65;2.20;;;24.40;31.60;;;;;;5074416;28;20267;-75
2023/06/04 12:14:03;;;;;;;2.15;1.60;;;24.40;33.20;;;;;;5073680;28;20224;-75
2023/06/04 12:16:28;;;;;;;2.50;1.92;;;24.50;29.00;;;;;;5074831;28;20247;-75
2023/06/04 12:19:11;;;;;;;3.42;1.60;;;24.60;28.80;;;;;;5073589;28;20268;-75
2023/06/04 12:21:38;;;;;;;2.88;1.60;;;24.60;24.20;;;;;;5073643;28;20188;-76
2023/06/04 12:24:07;;;;;;;3.75;2.00;;;24.20;22.10;;;;;;5074317;28;20187;-75
2023/06/04 12:26:37;;;;;;;2.78;1.77;;;24.20;25.40;;;;;;5073937;28;20271;-75
2023/06/04 12:29:13;;;;;;;4.45;1.90;;;24.30;24.70;;;;;;5074192;28;20228;-75
2023/06/04 12:31:43;;;;;;;2.22;1.92;;;24.70;30.30;;;;;;5074113;28;20183;-76
2023/06/04 12:34:10;;;;;;;5.15;2.22;;;24.80;24.30;;;;;;5073505;28;20228;-76
2023/06/04 12:36:36;;;;;;;3.17;2.00;;;24.50;22.50;;;;;;5073712;28;20165;-76
2023/06/04 12:39:03;;;;;;;3.20;2.47;;;23.90;24.80;;;;;;5073545;28;20180;-76
2023/06/04 12:41:30;;;;;;;4.90;2.10;;;24.30;31.30;;;;;;5074775;28;20179;-75
2023/06/04 12:43:56;;;;;;;3.60;1.90;;;24.40;27.50;;;;;;5073989;28;20169;-77
2023/06/04 12:46:23;;;;;;;3.05;2.03;;;24.70;15.30;;;;;;5073928;28;20169;-75
2023/06/04 12:48:51;;;;;;;4.13;2.00;;;24.50;22.90;;;;;;5073304;28;20203;-76
2023/06/04 12:51:16;;;;;;;2.00;1.80;;;24.40;25.00;;;;;;5072865;28;20168;-76